createdAt,value
2023-02-23T00:01:53.416Z,99561.00
2023-02-23T00:07:15.588Z,99558.09
2023-02-23T00:12:37.471Z,99566.88
2023-02-23T00:17:59.553Z,99571.63
2023-02-23T00:23:21.813Z,99568.06
2023-02-23T00:28:44.317Z,99561.91
2023-02-23T00:34:07.992Z,99572.22
2023-02-23T00:39:30.137Z,99542.72
2023-02-23T00:44:52.532Z,99561.88
2023-02-23T00:50:18.612Z,99572.50
2023-02-23T00:55:45.366Z,99541.59
2023-02-23T01:01:09.736Z,99569.63
2023-02-23T01:06:33.309Z,99558.88
2023-02-23T01:11:57.801Z,99541.06
2023-02-23T01:17:22.900Z,99565.13
2023-02-23T01:22:50.601Z,99580.88
2023-02-23T01:28:13.442Z,99567.53
2023-02-23T01:33:35.838Z,99583.59
2023-02-23T01:39:00.653Z,99588.47
2023-02-23T01:44:22.766Z,99591.97
2023-02-23T01:49:44.464Z,99590.25
2023-02-23T01:55:06.979Z,99598.22
2023-02-23T02:00:29.603Z,99595.66
2023-02-23T02:05:52.657Z,99555.47
2023-02-23T02:11:36.864Z,99584.00
2023-02-23T02:17:26.134Z,99562.78
2023-02-23T02:23:08.861Z,99613.56
2023-02-23T02:29:05.312Z,99619.22
2023-02-23T02:34:56.072Z,99628.47
2023-02-23T02:40:56.185Z,99601.78
2023-02-23T02:46:30.033Z,99602.25
2023-02-23T02:52:12.617Z,99616.88
2023-02-23T02:57:35.748Z,99604.88
2023-02-23T03:03:16.856Z,99594.72
2023-02-23T03:09:06.912Z,99607.91
2023-02-23T03:15:26.515Z,99608.47
2023-02-23T03:21:13.237Z,99623.75
2023-02-23T03:27:02.977Z,99605.06
2023-02-23T03:33:08.949Z,99641.56
2023-02-23T03:38:58.699Z,99658.56
2023-02-23T03:44:49.155Z,99659.75
2023-02-23T03:50:37.502Z,99656.22
2023-02-23T03:56:19.748Z,99663.38
2023-02-23T04:02:00.689Z,99670.34
2023-02-23T04:07:41.867Z,99674.63
2023-02-23T04:13:17.649Z,99670.53
2023-02-23T04:18:40.592Z,99666.34
2023-02-23T04:24:02.613Z,99649.53
2023-02-23T04:29:24.727Z,99675.06
2023-02-23T04:34:47.139Z,99675.78
2023-02-23T04:40:10.522Z,99662.66
2023-02-23T04:45:33.319Z,99664.84
2023-02-23T04:50:56.066Z,99647.84
2023-02-23T04:56:18.285Z,99660.22
2023-02-23T05:01:40.519Z,99655.06
2023-02-23T05:07:04.205Z,99690.94
2023-02-23T05:12:29.250Z,99676.22
2023-02-23T05:17:51.782Z,99672.88
2023-02-23T05:23:14.819Z,99681.63
2023-02-23T05:28:39.652Z,99697.38
2023-02-23T05:34:05.546Z,99714.16
2023-02-23T05:39:34.005Z,99684.09
2023-02-23T05:44:56.104Z,99704.72
2023-02-23T05:50:18.653Z,99700.91
2023-02-23T05:55:40.580Z,99707.19
2023-02-23T06:01:02.250Z,99722.69
2023-02-23T06:06:25.990Z,99708.81
2023-02-23T06:11:47.633Z,99724.47
2023-02-23T06:17:09.627Z,99709.81
2023-02-23T06:22:31.848Z,99729.88
2023-02-23T06:27:56.748Z,99706.94
2023-02-23T06:33:19.049Z,99725.38
2023-02-23T06:38:41.298Z,99717.28
2023-02-23T06:44:03.102Z,99723.69
2023-02-23T06:49:28.117Z,99729.78
2023-02-23T06:54:50.611Z,99721.66
2023-02-23T07:00:15.718Z,99732.94
2023-02-23T07:05:38.013Z,99715.78
2023-02-23T07:11:11.688Z,99729.06
2023-02-23T07:16:37.329Z,99730.31
2023-02-23T07:21:59.717Z,99737.50
2023-02-23T07:27:22.104Z,99716.34
2023-02-23T07:32:44.584Z,99746.81
2023-02-23T07:38:07.928Z,99733.81
2023-02-23T07:43:29.961Z,99744.06
2023-02-23T07:48:51.929Z,99732.66
2023-02-23T07:54:14.253Z,99724.75
2023-02-23T07:59:37.569Z,99742.06
2023-02-23T08:05:00.147Z,99753.00
2023-02-23T08:10:22.856Z,99752.03
2023-02-23T08:15:45.092Z,99754.31
2023-02-23T08:21:07.017Z,99734.97
2023-02-23T08:26:29.390Z,99748.63
2023-02-23T08:31:52.214Z,99754.59
2023-02-23T08:37:14.275Z,99757.88
2023-02-23T08:42:37.038Z,99747.72
2023-02-23T08:47:58.712Z,99755.56
2023-02-23T08:53:20.674Z,99745.06
2023-02-23T08:58:43.524Z,99752.66
2023-02-23T09:04:06.430Z,99741.34
2023-02-23T09:09:28.346Z,99750.44
2023-02-23T09:14:51.698Z,99748.56
2023-02-23T09:20:16.458Z,99753.56
2023-02-23T09:25:45.714Z,99744.16
2023-02-23T09:31:15.890Z,99747.94
2023-02-23T09:37:03.501Z,99745.91
2023-02-23T09:42:31.805Z,99744.97
2023-02-23T09:48:21.765Z,99744.28
2023-02-23T09:53:51.449Z,99716.41
2023-02-23T09:59:17.772Z,99738.00
2023-02-23T10:04:55.608Z,99726.56
2023-02-23T10:10:37.035Z,99726.31
2023-02-23T10:16:24.790Z,99704.38
2023-02-23T10:21:57.735Z,99710.84
2023-02-23T10:27:22.492Z,99692.34
2023-02-23T10:33:12.663Z,99706.69
2023-02-23T10:38:41.276Z,99722.66
2023-02-23T10:44:16.917Z,99721.59
2023-02-23T10:49:59.252Z,99704.72
2023-02-23T10:55:30.226Z,99714.41
2023-02-23T11:01:01.013Z,99725.41
2023-02-23T11:06:36.221Z,99716.56
2023-02-23T11:12:04.413Z,99716.38
2023-02-23T11:17:35.688Z,99724.78
2023-02-23T11:23:03.605Z,99725.06
2023-02-23T11:28:37.520Z,99740.66
2023-02-23T11:34:00.111Z,99736.06
2023-02-23T11:39:24.089Z,99732.56
2023-02-23T11:45:34.050Z,99732.19
2023-02-23T11:50:57.826Z,99735.16
2023-02-23T11:56:23.206Z,99717.94
2023-02-23T12:01:57.133Z,99715.84
2023-02-23T12:07:24.778Z,99700.16
2023-02-23T12:13:21.901Z,99736.63
2023-02-23T14:41:15.828Z,99663.66
2023-02-23T14:46:39.122Z,99644.97
2023-02-23T14:52:21.959Z,99673.50
2023-02-23T14:57:45.074Z,99708.69
2023-02-23T15:03:09.889Z,99695.34
2023-02-23T15:08:38.892Z,99681.84
2023-02-23T15:14:01.495Z,99686.28
2023-02-23T15:19:29.272Z,99679.09
2023-02-23T15:24:51.747Z,99683.19
2023-02-23T15:30:20.364Z,99700.94
2023-02-23T15:36:01.153Z,99675.53
2023-02-23T15:41:37.678Z,99677.81
2023-02-23T15:47:09.961Z,99685.44
2023-02-23T15:52:36.205Z,99664.75
2023-02-23T15:58:04.738Z,99666.69
2023-02-23T16:03:33.747Z,99670.25
2023-02-23T16:09:00.792Z,99705.06
2023-02-23T16:14:27.897Z,99672.44
2023-02-23T16:20:11.350Z,99692.44
2023-02-23T16:25:40.360Z,99667.81
2023-02-23T16:31:09.722Z,99700.00
2023-02-23T16:36:41.834Z,99667.88
2023-02-23T16:42:07.960Z,99697.28
2023-02-23T16:47:39.779Z,99669.78
2023-02-23T16:53:10.340Z,99676.97
2023-02-23T16:58:39.237Z,99681.38
2023-02-23T17:04:04.993Z,99673.50
2023-02-23T17:09:29.402Z,99666.97
2023-02-23T17:14:53.973Z,99662.38
2023-02-23T17:20:22.334Z,99685.81
2023-02-23T17:25:45.330Z,99671.28
2023-02-23T17:31:11.332Z,99674.25
2023-02-23T17:36:36.192Z,99677.88
2023-02-23T17:41:58.441Z,99682.97
2023-02-23T17:47:20.156Z,99668.44
2023-02-23T17:52:42.306Z,99666.16
2023-02-23T17:58:04.467Z,99677.88
2023-02-23T18:03:32.426Z,99696.41
2023-02-23T18:08:54.056Z,99681.22
2023-02-23T18:14:17.245Z,99694.16
2023-02-23T18:19:39.340Z,99652.69
2023-02-23T18:25:01.657Z,99691.38
2023-02-23T18:30:27.697Z,99699.25
2023-02-23T18:35:49.916Z,99684.84
2023-02-23T18:41:15.612Z,99661.59
2023-02-23T18:46:38.608Z,99676.19
2023-02-23T18:52:09.920Z,99648.09
2023-02-23T18:57:34.401Z,99633.47
2023-02-23T19:02:56.677Z,99651.63
2023-02-23T19:08:19.752Z,99675.03
2023-02-23T19:13:41.852Z,99664.41
2023-02-23T19:19:06.393Z,99634.09
2023-02-23T19:24:31.523Z,99628.28
2023-02-23T19:29:53.764Z,99626.09
2023-02-23T19:35:16.421Z,99633.44
2023-02-23T19:40:44.742Z,99621.44
2023-02-23T19:46:08.997Z,99605.13
2023-02-23T19:51:33.541Z,99613.31
2023-02-23T19:56:56.880Z,99612.97
2023-02-23T20:02:20.027Z,99600.63
2023-02-23T20:07:43.001Z,99588.19
2023-02-23T20:13:04.960Z,99612.50
2023-02-23T20:18:28.906Z,99624.59
2023-02-23T20:23:51.172Z,99585.97
2023-02-23T20:29:18.760Z,99642.84
2023-02-23T20:34:40.841Z,99606.78
2023-02-23T20:40:06.749Z,99610.97
2023-02-23T20:45:31.631Z,99625.66
2023-02-23T20:50:58.959Z,99608.09
2023-02-23T20:56:22.455Z,99610.91
2023-02-23T21:01:45.441Z,99630.50
2023-02-23T21:07:07.558Z,99587.75
2023-02-23T21:12:31.957Z,99612.44
2023-02-23T21:17:55.509Z,99595.97
2023-02-23T21:23:20.797Z,99591.59
2023-02-23T21:28:44.848Z,99590.47
2023-02-23T21:34:07.691Z,99591.44
2023-02-23T21:39:30.556Z,99602.66
2023-02-23T21:44:55.218Z,99603.41
2023-02-23T21:50:19.194Z,99569.09
2023-02-23T21:55:41.131Z,99580.44
2023-02-23T22:01:14.220Z,99576.06
2023-02-23T22:06:39.331Z,99604.31
2023-02-23T22:12:01.099Z,99556.91
2023-02-23T22:17:23.436Z,99570.88
2023-02-23T22:22:45.398Z,99592.44
2023-02-23T22:28:09.517Z,99593.56
2023-02-23T22:33:31.617Z,99598.91
2023-02-23T22:38:57.878Z,99566.72
2023-02-23T22:44:21.998Z,99579.78
2023-02-23T22:49:44.357Z,99562.38
2023-02-23T22:55:06.456Z,99550.34
2023-02-23T23:00:29.495Z,99549.69
2023-02-23T23:05:52.468Z,99546.28
2023-02-23T23:11:19.186Z,99546.91
2023-02-23T23:16:50.760Z,99535.91
2023-02-23T23:22:15.047Z,99530.81
2023-02-23T23:27:37.835Z,99538.56
2023-02-23T23:33:01.476Z,99546.34
2023-02-23T23:38:23.593Z,99528.06
2023-02-23T23:43:48.416Z,99513.16
2023-02-23T23:49:19.750Z,99512.66
2023-02-23T23:54:43.474Z,99511.69
